createdAt,value
2023-04-02T00:12:44.210Z,2.00
2023-04-02T00:25:44.197Z,2.40
2023-04-02T00:38:44.314Z,2.40
2023-04-02T00:51:44.204Z,1.90
2023-04-02T01:04:44.252Z,1.90
2023-04-02T01:17:44.320Z,2.10
2023-04-02T01:30:44.251Z,1.90
2023-04-02T01:43:44.752Z,1.50
2023-04-02T01:56:44.275Z,1.80
2023-04-02T02:09:44.316Z,1.60
2023-04-02T02:22:44.285Z,1.50
2023-04-02T02:35:44.294Z,2.20
2023-04-02T02:48:44.310Z,1.60
2023-04-02T03:01:44.305Z,1.70
2023-04-02T03:14:44.277Z,1.70
2023-04-02T03:27:44.309Z,1.75
2023-04-02T03:40:44.347Z,1.70
2023-04-02T03:53:44.343Z,1.60
2023-04-02T04:06:44.345Z,1.50
2023-04-02T04:19:44.438Z,1.30
2023-04-02T04:32:44.415Z,2.00
2023-04-02T04:45:44.460Z,2.05
2023-04-02T04:59:44.421Z,1.60
2023-04-02T05:13:44.775Z,2.05
2023-04-02T05:27:44.424Z,1.50
2023-04-02T05:41:44.443Z,1.60
2023-04-02T05:55:44.449Z,1.30
2023-04-02T06:09:44.426Z,2.10
2023-04-02T06:23:44.452Z,1.30
2023-04-02T06:37:44.460Z,2.10
2023-04-02T06:51:44.466Z,1.20
2023-04-02T07:05:44.504Z,1.80
2023-04-02T07:19:44.496Z,2.50
2023-04-02T07:33:44.489Z,1.90
2023-04-02T07:47:44.523Z,1.80
2023-04-02T08:01:44.540Z,11.10
2023-04-02T08:15:44.562Z,11.80
2023-04-02T08:29:44.540Z,14.00
2023-04-02T08:43:44.910Z,13.70
2023-04-02T08:57:44.578Z,10.60
2023-04-02T09:11:44.574Z,13.60
2023-04-02T09:25:48.442Z,12.50
2023-04-02T09:39:44.706Z,9.40
2023-04-02T09:53:44.656Z,8.30
2023-04-02T10:07:44.655Z,8.40
2023-04-02T10:21:44.680Z,9.20
2023-04-02T10:35:44.740Z,9.00
2023-04-02T10:49:44.732Z,7.80
2023-04-02T11:03:44.851Z,5.00
2023-04-02T11:17:44.835Z,4.80
2023-04-02T11:31:44.808Z,4.20
2023-04-02T11:45:52.511Z,3.90
2023-04-02T11:59:44.736Z,5.30
2023-04-02T12:13:44.836Z,2.10
2023-04-02T12:27:44.752Z,1.30
2023-04-02T12:41:44.811Z,1.20
2023-04-02T12:55:44.793Z,1.60
2023-04-02T13:09:44.798Z,2.20
2023-04-02T13:23:44.831Z,1.50
2023-04-02T13:37:44.847Z,0.80
2023-04-02T13:51:44.850Z,1.60
2023-04-02T14:05:44.852Z,1.20
2023-04-02T14:19:44.857Z,1.00
2023-04-02T14:33:44.873Z,1.00
2023-04-02T14:47:44.872Z,1.50
2023-04-02T15:01:45.030Z,3.30
2023-04-02T15:15:44.880Z,3.10
2023-04-02T15:29:44.842Z,1.00
2023-04-02T15:43:44.914Z,1.10
2023-04-02T15:57:44.863Z,1.60
2023-04-02T16:11:44.900Z,1.80
2023-04-02T16:25:44.924Z,6.60
2023-04-02T16:39:44.961Z,4.30
2023-04-02T16:53:54.716Z,6.30
2023-04-02T17:07:44.981Z,8.20
2023-04-02T17:21:44.970Z,6.30
2023-04-02T17:35:44.987Z,6.90
2023-04-02T17:50:45.020Z,14.50
2023-04-02T18:04:44.999Z,17.40
2023-04-02T18:18:45.021Z,22.50
2023-04-02T18:31:45.039Z,20.70
2023-04-02T18:44:45.028Z,20.10
2023-04-02T18:57:45.036Z,21.10
2023-04-02T19:10:45.107Z,19.20
2023-04-02T19:23:45.054Z,20.30
2023-04-02T19:36:45.059Z,17.30
2023-04-02T19:49:45.027Z,18.90
2023-04-02T20:02:45.062Z,17.60
2023-04-02T20:15:45.032Z,15.65
2023-04-02T20:28:45.052Z,15.70
2023-04-02T20:41:45.036Z,14.20
2023-04-02T20:54:45.021Z,13.40
2023-04-02T21:07:45.058Z,13.40
2023-04-02T21:20:45.045Z,12.20
2023-04-02T21:33:45.022Z,10.65
2023-04-02T21:46:45.062Z,11.00
2023-04-02T21:59:45.054Z,9.90
2023-04-02T22:12:45.068Z,9.60
2023-04-02T22:25:45.051Z,8.30
2023-04-02T22:38:45.059Z,7.50
2023-04-02T22:51:45.635Z,8.50
2023-04-02T23:04:45.124Z,7.60
2023-04-02T23:17:45.187Z,6.20
2023-04-02T23:30:45.119Z,6.00
2023-04-02T23:43:46.147Z,5.60
2023-04-02T23:56:45.119Z,5.50
